Kelso, MO

6:42 PM CST on December 02, 2016 (GMT -0600)
Cape Girardeau Regional | | Change Station

Elev 341 ft 37.23 °N, 89.57 °W | Updated 49 minutes ago

Clear
Clear
41 °F
Feels Like 36 °F
N
7
Wind Variable Wind from ENE

Today
High -- | Low -- °F
--% Chance of Precip.
Yesterday
High -- | Low -- °F
Precip. -- in
Pressure 30.30 in
Visibility 10.0 miles
Clouds Clear
Windchill 36 °F
Dew Point 31 °F
Humidity 67%
Rainfall 0.00 in
Snow Depth Not available.
6:54 AM 4:40 PM
Waxing Crescent, 11% visible
METAR KCGI 022353Z AUTO 07006KT 10SM CLR 05/M01 A3029 RMK AO2 SLP261 T00501006 10117 20050 51007
Pressure 30.30 in
Visibility 10.0 miles
Clouds Clear
Windchill 36 °F
Dew Point 31 °F
Humidity 67%
Rainfall 0.00 in
Snow Depth Not available.
6:54 AM 4:40 PM
Waxing Crescent, 11% visible
METAR KCGI 022353Z AUTO 07006KT 10SM CLR 05/M01 A3029 RMK AO2 SLP261 T00501006 10117 20050 51007

10-Day Weather Forecast

Almanac

Astronomy

Dec. 02, 2016 Rise Set
Actual Time
Civil Twilight
Nautical Twilight
Astronomical Twilight
Moon
Length of Visible Light
Length of Day
Tomorrow will be .
, % of the Moon is Illuminated

Today's Extremes

State Highs State Lows

Community

WunderPhotos

Upload Photos

1,955,381 photos uploaded!

WunderBlog® & News

Nearby

Air Quality

  Air Quality AQ Index Pollutant
Not available.

Snow Depth

Station Depth Elevation

Earthquake Activity

City Distance Mag. Time & Date
Minimum magnitude displayed is 2.5.

Coastal Water Temperatures

Place Temperature

Stations

Nearby Weather Stations

Station Location Temp. Windchill Dew Point Humidity Wind Precip. Elev Updated Type
                   

Watches & Warnings

There are currently no watches in effect.